createdAt,value
2018-06-13T00:01:24.836Z,100851.00
2018-06-13T00:04:36.116Z,100852.00
2018-06-13T00:07:46.952Z,100857.00
2018-06-13T00:10:57.824Z,100852.00
2018-06-13T00:14:08.691Z,100855.00
2018-06-13T00:17:20.324Z,100860.00
2018-06-13T00:20:30.879Z,100859.00
2018-06-13T00:23:41.353Z,100862.00
2018-06-13T00:26:51.771Z,100864.00
2018-06-13T00:30:02.694Z,100870.00
2018-06-13T00:33:13.182Z,100865.00
2018-06-13T00:36:23.908Z,100867.00
2018-06-13T00:39:34.741Z,100865.00
2018-06-13T00:42:46.464Z,100874.00
2018-06-13T00:45:57.279Z,100871.00
2018-06-13T00:49:07.716Z,100870.00
2018-06-13T00:52:18.543Z,100867.00
2018-06-13T00:55:29.556Z,100871.00
2018-06-13T00:58:40.315Z,100872.00
2018-06-13T01:01:51.288Z,100872.00
2018-06-13T01:05:02.816Z,100869.00
2018-06-13T01:08:13.549Z,100873.00
2018-06-13T01:11:24.053Z,100872.00
2018-06-13T01:14:34.811Z,100873.00
2018-06-13T01:17:45.478Z,100874.00
2018-06-13T01:20:55.822Z,100877.00
2018-06-13T01:24:06.707Z,100877.00
2018-06-13T01:27:17.517Z,100879.00
2018-06-13T01:30:28.408Z,100874.00
2018-06-13T01:33:39.208Z,100878.00
2018-06-13T01:36:50.130Z,100879.00
2018-06-13T01:40:01.154Z,100878.00
2018-06-13T01:43:12.526Z,100878.00
2018-06-13T01:46:24.382Z,100881.00
2018-06-13T01:49:35.872Z,100881.00
2018-06-13T01:52:46.592Z,100884.00
2018-06-13T01:55:57.592Z,100887.00
2018-06-13T01:59:07.958Z,100885.00
2018-06-13T02:02:18.441Z,100884.00
2018-06-13T02:05:29.108Z,100882.00
2018-06-13T02:08:40.086Z,100882.00
2018-06-13T02:11:50.399Z,100884.00
2018-06-13T02:15:01.392Z,100890.00
2018-06-13T02:18:12.281Z,100886.00
2018-06-13T02:21:23.360Z,100885.00
2018-06-13T02:24:34.115Z,100887.00
2018-06-13T02:27:44.761Z,100883.00
2018-06-13T02:30:55.724Z,100885.00
2018-06-13T02:34:06.611Z,100889.00
2018-06-13T02:37:18.216Z,100889.00
2018-06-13T02:40:29.411Z,100891.00
2018-06-13T02:43:40.160Z,100891.00
2018-06-13T02:46:50.967Z,100889.00
2018-06-13T02:50:01.435Z,100885.00
2018-06-13T02:53:12.188Z,100878.00
2018-06-13T02:56:23.149Z,100876.00
2018-06-13T02:59:34.552Z,100881.00
2018-06-13T03:02:45.345Z,100884.00
2018-06-13T03:05:56.425Z,100886.00
2018-06-13T03:09:10.385Z,100888.00
2018-06-13T03:12:21.716Z,100883.00
2018-06-13T03:15:34.203Z,100885.00
2018-06-13T03:18:44.533Z,100892.00
2018-06-13T03:21:56.004Z,100895.00
2018-06-13T03:25:07.809Z,100893.00
2018-06-13T03:28:20.169Z,100898.00
2018-06-13T03:31:31.715Z,100899.00
2018-06-13T03:34:42.844Z,100901.00
2018-06-13T03:38:00.359Z,100892.00
2018-06-13T03:41:12.698Z,100897.00
2018-06-13T03:44:23.780Z,100901.00
2018-06-13T03:47:35.264Z,100894.00
2018-06-13T03:50:47.353Z,100898.00
2018-06-13T03:53:59.813Z,100901.00
2018-06-13T03:57:10.545Z,100904.00
2018-06-13T04:00:21.958Z,100908.00
2018-06-13T04:03:32.520Z,100908.00
2018-06-13T04:06:43.190Z,100908.00
2018-06-13T04:09:54.064Z,100911.00
2018-06-13T04:13:04.671Z,100913.00
2018-06-13T04:16:15.109Z,100910.00
2018-06-13T04:19:26.815Z,100912.00
2018-06-13T04:22:37.167Z,100916.00
2018-06-13T04:25:47.988Z,100918.00
2018-06-13T04:28:58.675Z,100918.00
2018-06-13T04:32:09.572Z,100917.00
2018-06-13T04:35:19.870Z,100916.00
2018-06-13T04:38:32.028Z,100910.00
2018-06-13T04:41:42.708Z,100914.00
2018-06-13T04:44:53.189Z,100912.00
2018-06-13T04:48:03.876Z,100904.00
2018-06-13T04:51:14.616Z,100902.00
2018-06-13T04:54:25.628Z,100898.00
2018-06-13T04:57:36.336Z,100895.00
2018-06-13T05:00:47.129Z,100892.00
2018-06-13T05:03:57.994Z,100894.00
2018-06-13T05:07:08.357Z,100902.00
2018-06-13T05:10:19.360Z,100901.00
2018-06-13T05:13:30.445Z,100899.00
2018-06-13T05:16:41.048Z,100906.00
2018-06-13T05:19:52.296Z,100902.00
2018-06-13T05:23:02.721Z,100914.00
2018-06-13T05:26:13.050Z,100912.00
2018-06-13T05:29:23.989Z,100912.00
2018-06-13T05:32:34.363Z,100905.00
2018-06-13T05:35:47.880Z,100905.00
2018-06-13T05:38:58.704Z,100903.00
2018-06-13T05:42:08.953Z,100903.00
2018-06-13T05:45:20.296Z,100910.00
2018-06-13T05:48:30.915Z,100916.00
2018-06-13T05:51:41.797Z,100921.00
2018-06-13T05:54:52.480Z,100928.00
2018-06-13T05:58:03.167Z,100927.00
2018-06-13T06:01:18.364Z,100926.00
2018-06-13T06:04:30.156Z,100930.00
2018-06-13T06:07:40.772Z,100932.00
2018-06-13T06:10:51.472Z,100929.00
2018-06-13T06:14:02.037Z,100943.00
2018-06-13T06:17:12.915Z,100939.00
2018-06-13T06:20:23.662Z,100945.00
2018-06-13T06:23:34.128Z,100938.00
2018-06-13T06:26:44.447Z,100944.00
2018-06-13T06:29:55.475Z,100947.00
2018-06-13T06:33:06.340Z,100944.00
2018-06-13T06:36:16.918Z,100951.00
2018-06-13T06:39:27.812Z,100949.00
2018-06-13T06:42:38.369Z,100960.00
2018-06-13T06:45:49.371Z,100964.00
2018-06-13T06:49:00.231Z,100951.00
2018-06-13T06:52:10.987Z,100952.00
2018-06-13T06:55:21.821Z,100954.00
2018-06-13T06:58:32.558Z,100948.00
2018-06-13T07:01:44.090Z,100955.00
2018-06-13T07:04:55.347Z,100946.00
2018-06-13T07:08:05.753Z,100950.00
2018-06-13T07:11:16.562Z,100949.00
2018-06-13T07:14:26.790Z,100947.00
2018-06-13T07:17:37.175Z,100950.00
2018-06-13T07:20:48.447Z,100951.00
2018-06-13T07:23:59.128Z,100949.00
2018-06-13T07:27:09.833Z,100952.00
2018-06-13T07:30:21.255Z,100954.00
2018-06-13T07:33:32.083Z,100950.00
2018-06-13T07:36:42.940Z,100946.00
2018-06-13T07:39:53.908Z,100949.00
2018-06-13T07:43:04.644Z,100947.00
2018-06-13T07:46:15.516Z,100945.00
2018-06-13T07:49:26.324Z,100953.00
2018-06-13T07:52:37.082Z,100954.00
2018-06-13T07:55:47.427Z,100963.00
2018-06-13T07:58:58.145Z,100953.00
2018-06-13T08:02:08.708Z,100959.00
2018-06-13T08:05:19.335Z,100950.00
2018-06-13T08:08:30.223Z,100952.00
2018-06-13T08:11:40.471Z,100959.00
2018-06-13T08:14:51.140Z,100968.00
2018-06-13T08:18:01.833Z,100973.00
2018-06-13T08:21:12.684Z,100968.00
2018-06-13T08:24:23.508Z,100969.00
2018-06-13T08:27:34.066Z,100980.00
2018-06-13T08:30:44.924Z,100980.00
2018-06-13T08:33:55.351Z,100992.00
2018-06-13T08:37:05.962Z,100999.00
2018-06-13T08:40:16.730Z,101001.00
2018-06-13T08:43:27.480Z,100999.00
2018-06-13T08:46:38.521Z,101002.00
2018-06-13T08:49:49.216Z,101007.00
2018-06-13T08:52:59.805Z,101000.00
2018-06-13T08:56:10.147Z,101003.00
2018-06-13T08:59:20.968Z,101005.00
2018-06-13T09:02:31.896Z,100996.00
2018-06-13T09:05:42.379Z,100997.00
2018-06-13T09:08:52.878Z,100991.00
2018-06-13T09:12:04.332Z,100994.00
2018-06-13T09:15:14.777Z,100985.00
2018-06-13T09:18:25.540Z,100987.00
2018-06-13T09:21:35.818Z,100982.00
2018-06-13T09:24:46.464Z,100986.00
2018-06-13T09:27:57.084Z,100990.00
2018-06-13T09:31:07.553Z,100990.00
2018-06-13T09:34:18.349Z,100993.00
2018-06-13T09:37:29.104Z,100990.00
2018-06-13T09:40:39.771Z,100977.00
2018-06-13T09:43:50.895Z,100980.00
2018-06-13T09:47:06.903Z,100972.00
2018-06-13T09:50:13.204Z,100978.00
2018-06-13T09:53:23.792Z,100970.00
2018-06-13T09:56:34.514Z,100972.00
2018-06-13T09:59:50.375Z,100970.00
2018-06-13T10:03:01.157Z,100967.00
2018-06-13T10:06:11.862Z,100965.00
2018-06-13T10:09:22.464Z,100972.00
2018-06-13T10:12:33.132Z,100983.00
2018-06-13T10:15:47.906Z,100978.00
2018-06-13T10:18:58.836Z,100985.00
2018-06-13T10:22:09.763Z,100985.00
2018-06-13T10:25:21.019Z,100979.00
2018-06-13T10:28:31.919Z,100984.00
2018-06-13T10:31:45.733Z,100983.00
2018-06-13T10:34:56.304Z,100979.00
2018-06-13T10:38:07.684Z,100990.00
2018-06-13T10:41:18.456Z,100992.00
2018-06-13T10:44:29.666Z,100988.00
2018-06-13T10:47:40.125Z,100984.00
2018-06-13T10:50:50.453Z,100978.00
2018-06-13T10:54:01.412Z,100985.00
2018-06-13T10:57:12.229Z,100982.00
2018-06-13T11:00:22.868Z,100983.00
2018-06-13T11:03:33.744Z,100977.00
2018-06-13T11:06:45.077Z,100975.00
2018-06-13T11:09:55.424Z,100982.00
2018-06-13T11:13:06.156Z,100987.00
2018-06-13T11:16:16.971Z,100994.00
2018-06-13T11:19:27.698Z,100998.00
2018-06-13T11:22:38.415Z,101003.00
2018-06-13T11:25:48.716Z,101005.00
2018-06-13T11:29:00.110Z,101008.00
2018-06-13T11:32:11.448Z,101004.00
2018-06-13T11:35:21.720Z,101002.00
2018-06-13T11:38:32.119Z,101004.00
2018-06-13T11:41:42.857Z,101002.00
2018-06-13T11:44:54.654Z,100992.00
2018-06-13T11:48:05.460Z,100996.00
2018-06-13T11:51:16.938Z,100991.00
2018-06-13T11:54:27.800Z,100993.00
2018-06-13T11:57:38.722Z,100994.00
2018-06-13T12:00:49.476Z,100993.00
2018-06-13T12:04:00.067Z,100978.00
2018-06-13T12:07:10.834Z,100974.00
2018-06-13T12:10:22.261Z,100964.00
2018-06-13T12:13:32.785Z,100950.00
2018-06-13T12:16:43.556Z,100977.00
2018-06-13T12:19:54.121Z,100986.00
2018-06-13T12:23:06.253Z,100991.00
2018-06-13T12:26:17.657Z,100987.00
2018-06-13T12:29:29.121Z,100991.00
2018-06-13T12:32:48.453Z,100980.00
2018-06-13T12:35:58.891Z,100980.00
2018-06-13T12:39:11.352Z,100979.00
2018-06-13T12:42:22.072Z,100967.00
2018-06-13T12:45:32.874Z,100976.00
2018-06-13T12:48:43.433Z,100978.00
2018-06-13T12:51:54.139Z,100993.00
2018-06-13T12:55:05.189Z,100999.00
2018-06-13T12:58:15.940Z,101006.00
2018-06-13T13:01:26.956Z,101006.00
2018-06-13T13:04:38.542Z,101009.00
2018-06-13T13:07:49.090Z,101003.00
2018-06-13T13:10:59.451Z,101005.00
2018-06-13T13:14:10.065Z,101013.00
2018-06-13T13:17:20.913Z,101006.00
2018-06-13T13:20:31.516Z,100996.00
2018-06-13T13:23:42.261Z,100993.00
2018-06-13T13:26:53.372Z,100998.00
2018-06-13T13:30:04.342Z,100999.00
2018-06-13T13:33:15.184Z,100982.00
2018-06-13T13:36:25.887Z,100987.00
2018-06-13T13:39:36.671Z,100987.00
2018-06-13T13:42:48.847Z,100987.00
2018-06-13T13:45:59.878Z,101002.00
2018-06-13T13:49:10.159Z,101004.00
2018-06-13T13:52:20.750Z,101003.00
2018-06-13T13:55:31.176Z,101007.00
2018-06-13T13:58:41.614Z,101002.00
2018-06-13T14:01:52.367Z,100995.00
2018-06-13T14:05:02.995Z,100987.00
2018-06-13T14:08:13.632Z,100989.00
2018-06-13T14:11:24.445Z,100992.00
2018-06-13T14:14:35.261Z,100990.00
2018-06-13T14:17:46.283Z,100982.00
2018-06-13T14:20:57.556Z,100983.00
2018-06-13T14:24:12.464Z,100995.00
2018-06-13T14:27:22.793Z,100997.00
2018-06-13T14:30:33.942Z,101006.00
2018-06-13T14:33:45.600Z,101009.00
2018-06-13T14:36:56.419Z,100997.00
2018-06-13T14:40:07.029Z,101001.00
2018-06-13T14:43:17.686Z,101004.00
2018-06-13T14:46:29.532Z,101007.00
2018-06-13T14:49:40.540Z,101018.00
2018-06-13T14:52:51.248Z,101020.00
2018-06-13T14:56:07.147Z,101029.00
2018-06-13T14:59:17.686Z,101022.00
2018-06-13T15:02:28.657Z,101028.00
2018-06-13T15:05:39.752Z,101023.00
2018-06-13T15:08:50.741Z,101013.00
2018-06-13T15:12:01.492Z,101010.00
2018-06-13T15:15:12.704Z,101011.00
2018-06-13T15:18:24.205Z,101016.00
2018-06-13T15:21:34.875Z,101015.00
2018-06-13T15:24:45.708Z,101010.00
2018-06-13T15:27:56.557Z,101014.00
2018-06-13T15:31:07.416Z,101006.00
2018-06-13T15:34:18.067Z,101004.00
2018-06-13T15:37:28.625Z,101006.00
2018-06-13T15:40:40.397Z,101013.00
2018-06-13T15:43:51.260Z,101010.00
2018-06-13T15:47:02.535Z,101010.00
2018-06-13T15:50:14.065Z,101017.00
2018-06-13T15:53:24.973Z,101019.00
2018-06-13T15:56:35.587Z,101011.00
2018-06-13T15:59:48.240Z,101006.00
2018-06-13T16:03:03.686Z,101001.00
2018-06-13T16:06:15.747Z,101009.00
2018-06-13T16:09:29.429Z,100999.00
2018-06-13T16:12:40.416Z,101003.00
2018-06-13T16:15:51.839Z,101008.00
2018-06-13T16:19:05.512Z,101015.00
2018-06-13T16:22:18.948Z,101018.00
2018-06-13T16:25:29.636Z,101026.00
2018-06-13T16:28:41.143Z,101026.00
2018-06-13T16:31:52.007Z,101034.00
2018-06-13T16:35:04.547Z,101025.00
2018-06-13T16:38:20.343Z,101027.00
2018-06-13T16:41:31.258Z,101023.00
2018-06-13T16:44:42.428Z,101023.00
2018-06-13T16:47:55.191Z,101020.00
2018-06-13T16:51:17.262Z,101023.00
2018-06-13T16:54:45.017Z,101035.00
2018-06-13T16:57:58.679Z,101036.00
2018-06-13T17:01:10.551Z,101042.00
2018-06-13T17:04:22.968Z,101050.00
2018-06-13T17:07:34.261Z,101050.00
2018-06-13T17:10:45.369Z,101051.00
2018-06-13T17:13:57.131Z,101055.00
2018-06-13T17:17:07.569Z,101057.00
2018-06-13T17:20:20.555Z,101057.00
2018-06-13T17:23:31.009Z,101058.00
2018-06-13T17:26:42.793Z,101061.00
2018-06-13T17:29:55.084Z,101060.00
2018-06-13T17:33:09.009Z,101066.00
2018-06-13T17:36:22.488Z,101072.00
2018-06-13T17:39:32.982Z,101080.00
2018-06-13T17:42:44.321Z,101079.00
2018-06-13T17:45:56.288Z,101077.00
2018-06-13T17:49:09.423Z,101079.00
2018-06-13T17:52:20.974Z,101075.00
2018-06-13T17:55:32.144Z,101077.00
2018-06-13T17:58:43.272Z,101080.00
2018-06-13T18:01:55.148Z,101085.00
2018-06-13T18:05:08.112Z,101092.00
2018-06-13T18:08:19.314Z,101092.00
2018-06-13T18:11:30.118Z,101083.00
2018-06-13T18:14:42.804Z,101078.00
2018-06-13T18:17:54.478Z,101062.00
2018-06-13T18:21:10.958Z,101062.00
2018-06-13T18:24:24.262Z,101067.00
2018-06-13T18:27:35.428Z,101077.00
2018-06-13T18:30:46.336Z,101085.00
2018-06-13T18:33:57.925Z,101085.00
2018-06-13T18:37:10.714Z,101065.00
2018-06-13T18:40:22.046Z,101082.00
2018-06-13T18:43:33.008Z,101074.00
2018-06-13T18:46:44.046Z,101066.00
2018-06-13T18:49:55.186Z,101079.00
2018-06-13T18:53:07.869Z,101085.00
2018-06-13T18:56:18.468Z,101085.00
2018-06-13T18:59:29.092Z,101086.00
2018-06-13T19:02:42.575Z,101081.00
2018-06-13T19:05:53.143Z,101078.00
2018-06-13T19:09:04.759Z,101080.00
2018-06-13T19:12:15.517Z,101088.00
2018-06-13T19:15:26.235Z,101091.00
2018-06-13T19:18:37.047Z,101094.00
2018-06-13T19:21:48.967Z,101095.00
2018-06-13T19:25:00.313Z,101097.00
2018-06-13T19:28:11.881Z,101098.00
2018-06-13T19:31:22.815Z,101100.00
2018-06-13T19:34:33.991Z,101101.00
2018-06-13T19:37:44.789Z,101106.00
2018-06-13T19:40:58.028Z,101108.00
2018-06-13T19:44:08.958Z,101112.00
2018-06-13T19:47:24.507Z,101119.00
2018-06-13T19:50:35.124Z,101125.00
2018-06-13T19:53:50.777Z,101129.00
2018-06-13T19:57:02.137Z,101133.00
2018-06-13T20:00:13.489Z,101142.00
2018-06-13T20:03:29.190Z,101147.00
2018-06-13T20:06:40.908Z,101146.00
2018-06-13T20:09:51.609Z,101150.00
2018-06-13T20:13:08.014Z,101153.00
2018-06-13T20:16:40.884Z,101154.00
2018-06-13T20:19:53.126Z,101149.00
2018-06-13T20:23:04.042Z,101157.00
2018-06-13T20:26:19.934Z,101161.00
2018-06-13T20:29:35.877Z,101164.00
2018-06-13T20:32:46.836Z,101169.00
2018-06-13T20:35:57.781Z,101176.00
2018-06-13T20:39:11.066Z,101174.00
2018-06-13T20:42:23.064Z,101186.00
2018-06-13T20:45:33.928Z,101185.00
2018-06-13T20:48:44.272Z,101177.00
2018-06-13T20:51:55.109Z,101176.00
2018-06-13T20:55:05.866Z,101178.00
2018-06-13T20:58:16.534Z,101178.00
2018-06-13T21:01:27.732Z,101177.00
2018-06-13T21:04:38.540Z,101179.00
2018-06-13T21:07:49.297Z,101182.00
2018-06-13T21:11:00.399Z,101180.00
2018-06-13T21:14:10.900Z,101173.00
2018-06-13T21:17:21.869Z,101167.00
2018-06-13T21:20:32.901Z,101161.00
2018-06-13T21:23:44.506Z,101161.00
2018-06-13T21:26:55.947Z,101155.00
2018-06-13T21:30:07.209Z,101162.00
2018-06-13T21:33:19.263Z,101164.00
2018-06-13T21:36:30.702Z,101158.00
2018-06-13T21:39:41.890Z,101159.00
2018-06-13T21:42:53.480Z,101159.00
2018-06-13T21:46:04.454Z,101153.00
2018-06-13T21:49:15.482Z,101151.00
2018-06-13T21:52:28.059Z,101141.00
2018-06-13T21:55:38.866Z,101138.00
2018-06-13T21:58:49.172Z,101141.00
2018-06-13T22:02:00.329Z,101143.00
2018-06-13T22:05:10.659Z,101135.00
2018-06-13T22:08:21.222Z,101131.00
2018-06-13T22:11:36.003Z,101133.00
2018-06-13T22:14:46.390Z,101136.00
2018-06-13T22:17:58.413Z,101138.00
2018-06-13T22:21:11.056Z,101144.00
2018-06-13T22:24:21.427Z,101142.00
2018-06-13T22:27:32.097Z,101142.00
2018-06-13T22:30:42.781Z,101145.00
2018-06-13T22:33:53.700Z,101152.00
2018-06-13T22:37:08.648Z,101152.00
2018-06-13T22:40:20.702Z,101151.00
2018-06-13T22:43:31.665Z,101149.00
2018-06-13T22:46:42.575Z,101150.00
2018-06-13T22:49:53.035Z,101148.00
2018-06-13T22:53:04.187Z,101146.00
2018-06-13T22:56:14.971Z,101146.00
2018-06-13T22:59:25.211Z,101145.00
2018-06-13T23:02:35.995Z,101139.00
2018-06-13T23:05:46.557Z,101131.00
2018-06-13T23:08:57.459Z,101137.00
2018-06-13T23:12:08.617Z,101140.00
2018-06-13T23:15:19.486Z,101135.00
2018-06-13T23:18:31.062Z,101134.00
2018-06-13T23:21:41.601Z,101138.00
2018-06-13T23:24:52.340Z,101137.00
2018-06-13T23:28:02.827Z,101135.00
2018-06-13T23:31:13.252Z,101138.00
2018-06-13T23:34:23.849Z,101139.00
2018-06-13T23:37:35.119Z,101131.00
2018-06-13T23:40:46.108Z,101130.00
2018-06-13T23:43:56.863Z,101130.00
2018-06-13T23:47:07.962Z,101133.00
2018-06-13T23:50:19.041Z,101130.00
2018-06-13T23:53:29.396Z,101132.00
2018-06-13T23:56:41.070Z,101134.00
2018-06-13T23:59:51.986Z,101134.00
